Time;durP1;ratioP1;P1;durP2;ratioP2;P2;SDS_P1;SDS_P2;PMS_P1;PMS_P2;Temp;Humidity;BMP_temperature;BMP_pressure;BME280_temperature;BME280_humidity;BME280_pressure;Samples;Min_cycle;Max_cycle;Signal;HPM_P1;HPM_P2
2021/12/28 00:00:00;;;;;;;14.15;7.95;;;;;;;;;;4861804;29;20055;-87
2021/12/28 00:02:25;;;;;;;13.90;7.88;;;;;;;;;;4872284;29;20041;-88
2021/12/28 00:04:51;;;;;;;16.08;7.63;;;;;;;;;;4864117;29;20501;-85
2021/12/28 00:07:17;;;;;;;19.52;7.28;;;;;;;;;;4853732;29;20029;-88
2021/12/28 00:09:42;;;;;;;14.27;6.68;;;;;;;;;;4840993;29;20097;-85
2021/12/28 00:12:08;;;;;;;14.77;6.80;;;;;;;;;;4855204;29;20089;-87
2021/12/28 00:14:37;;;;;;;13.10;6.25;;;;;;;;;;4848683;29;20040;-88
2021/12/28 00:19:47;;;;;;;15.23;6.43;;;;;;;;;;4864892;29;20093;-87
2021/12/28 00:22:13;;;;;;;13.10;6.05;;;;;;;;;;4847344;29;20037;-88
2021/12/28 00:24:39;;;;;;;14.40;6.25;;;;;;;;;;4859702;29;20061;-86
2021/12/28 00:27:04;;;;;;;18.42;6.45;;;;;;;;;;4857575;29;20030;-88
2021/12/28 00:29:30;;;;;;;13.18;6.47;;;;;;;;;;4837337;29;20394;-86
2021/12/28 00:31:56;;;;;;;14.93;6.53;;;;;;;;;;4844938;29;20029;-84
2021/12/28 00:34:21;;;;;;;13.63;6.75;;;;;;;;;;4843908;29;20089;-88
2021/12/28 00:36:47;;;;;;;11.80;6.10;;;;;;;;;;4840208;29;20097;-85
2021/12/28 00:39:13;;;;;;;15.45;7.10;;;;;;;;;;4838597;29;20031;-87
2021/12/28 00:41:38;;;;;;;14.48;6.05;;;;;;;;;;4841633;29;20037;-84
2021/12/28 00:44:04;;;;;;;17.45;6.20;;;;;;;;;;4837724;29;20025;-88
2021/12/28 00:46:30;;;;;;;14.65;6.38;;;;;;;;;;4844287;29;20037;-88
2021/12/28 00:48:55;;;;;;;18.00;5.82;;;;;;;;;;4845239;29;20021;-88
2021/12/28 00:51:20;;;;;;;16.25;5.88;;;;;;;;;;4846884;29;20081;-88
2021/12/28 00:53:46;;;;;;;14.38;5.63;;;;;;;;;;4841907;29;21190;-87
2021/12/28 00:56:12;;;;;;;18.05;5.97;;;;;;;;;;4844163;29;20093;-87
2021/12/28 00:58:37;;;;;;;19.10;5.72;;;;;;;;;;4840947;29;20113;-87
2021/12/28 01:01:04;;;;;;;19.33;6.07;;;;;;;;;;4843862;29;20033;-87
2021/12/28 01:03:32;;;;;;;14.52;5.80;;;;;;;;;;4842532;29;20057;-84
2021/12/28 01:05:57;;;;;;;12.27;5.40;;;;;;;;;;4839434;29;20036;-87
2021/12/28 01:08:22;;;;;;;14.35;5.93;;;;;;;;;;4850745;29;20050;-88
2021/12/28 01:10:50;;;;;;;16.40;6.15;;;;;;;;;;4851718;29;20033;-88
2021/12/28 01:13:17;;;;;;;16.88;5.70;;;;;;;;;;4852509;29;20105;-90
2021/12/28 01:15:43;;;;;;;18.42;6.20;;;;;;;;;;4854132;29;20120;-88
2021/12/28 01:18:09;;;;;;;12.93;4.90;;;;;;;;;;4854226;29;20609;-86
2021/12/28 01:20:35;;;;;;;13.50;5.57;;;;;;;;;;4858424;29;20032;-89
2021/12/28 01:23:01;;;;;;;14.18;5.95;;;;;;;;;;4852629;29;20112;-89
2021/12/28 01:25:27;;;;;;;16.60;5.55;;;;;;;;;;4861331;29;20030;-86
2021/12/28 01:27:52;;;;;;;14.00;5.60;;;;;;;;;;4858678;29;20082;-87
2021/12/28 01:30:20;;;;;;;16.15;5.30;;;;;;;;;;4859466;29;20063;-88
2021/12/28 01:32:47;;;;;;;14.82;5.60;;;;;;;;;;4851958;29;20029;-85
2021/12/28 01:35:16;;;;;;;18.10;5.13;;;;;;;;;;4857637;29;20045;-88
2021/12/28 01:37:43;;;;;;;13.80;5.10;;;;;;;;;;4859859;29;20041;-88
2021/12/28 01:40:12;;;;;;;15.73;5.70;;;;;;;;;;4859448;29;20025;-88
2021/12/28 01:43:08;;;;;;;14.48;5.90;;;;;;;;;;4871808;29;20033;-87
2021/12/28 01:45:54;;;;;;;16.25;5.22;;;;;;;;;;4860648;29;20033;-86
2021/12/28 01:48:29;;;;;;;19.30;5.90;;;;;;;;;;4875812;29;20033;-88
2021/12/28 01:50:57;;;;;;;15.05;4.65;;;;;;;;;;4859846;29;20124;-89
2021/12/28 01:53:24;;;;;;;17.05;5.07;;;;;;;;;;4872734;29;20042;-84
2021/12/28 01:55:52;;;;;;;14.00;4.97;;;;;;;;;;4867913;29;20520;-88
2021/12/28 01:58:18;;;;;;;16.27;5.15;;;;;;;;;;4875477;29;20424;-88
2021/12/28 02:00:46;;;;;;;15.40;5.07;;;;;;;;;;4861266;29;20485;-88
2021/12/28 02:03:15;;;;;;;16.08;5.55;;;;;;;;;;4876465;29;20583;-84
2021/12/28 02:05:41;;;;;;;19.52;5.93;;;;;;;;;;4860527;29;20025;-87
2021/12/28 02:08:08;;;;;;;17.52;5.68;;;;;;;;;;4864536;29;20037;-87
2021/12/28 02:10:35;;;;;;;15.48;5.05;;;;;;;;;;4863244;29;20049;-89
2021/12/28 02:13:01;;;;;;;19.20;4.75;;;;;;;;;;4860120;29;20485;-86
2021/12/28 02:15:26;;;;;;;15.75;4.85;;;;;;;;;;4866578;29;20030;-87
2021/12/28 02:17:51;;;;;;;17.02;4.50;;;;;;;;;;4861533;29;20070;-86
2021/12/28 02:20:19;;;;;;;16.17;4.95;;;;;;;;;;4865878;29;20025;-88
2021/12/28 02:22:45;;;;;;;21.13;5.20;;;;;;;;;;4861470;29;20033;-87
2021/12/28 02:25:11;;;;;;;20.05;4.25;;;;;;;;;;4860452;29;20029;-88
2021/12/28 02:27:38;;;;;;;19.27;5.10;;;;;;;;;;4879298;29;20028;-87
2021/12/28 02:30:06;;;;;;;13.25;4.40;;;;;;;;;;4859284;29;20037;-89
2021/12/28 02:32:31;;;;;;;18.02;5.28;;;;;;;;;;4862834;29;20039;-89
2021/12/28 02:34:58;;;;;;;17.67;4.40;;;;;;;;;;4860501;29;20033;-87
2021/12/28 02:37:24;;;;;;;19.90;4.53;;;;;;;;;;4865350;29;20034;-88
2021/12/28 02:39:50;;;;;;;18.17;4.28;;;;;;;;;;4863653;29;20056;-88
2021/12/28 02:42:22;;;;;;;18.45;4.47;;;;;;;;;;4858262;29;20029;-87
2021/12/28 02:45:07;;;;;;;13.98;4.53;;;;;;;;;;4861054;29;20029;-85
2021/12/28 02:47:37;;;;;;;17.25;4.43;;;;;;;;;;4862438;29;20022;-85
2021/12/28 02:50:06;;;;;;;15.48;4.55;;;;;;;;;;4859513;29;20302;-88
2021/12/28 02:52:36;;;;;;;20.50;4.38;;;;;;;;;;4861956;29;20068;-88
2021/12/28 02:55:08;;;;;;;14.98;3.75;;;;;;;;;;4875866;29;20084;-88
2021/12/28 02:57:33;;;;;;;17.23;4.10;;;;;;;;;;4866994;29;20229;-88
2021/12/28 02:59:59;;;;;;;14.73;4.50;;;;;;;;;;4859310;29;20124;-87
2021/12/28 03:02:24;;;;;;;16.13;4.70;;;;;;;;;;4860669;29;20057;-85
2021/12/28 03:04:51;;;;;;;19.92;4.50;;;;;;;;;;4858134;29;20520;-88
2021/12/28 03:07:16;;;;;;;16.98;4.55;;;;;;;;;;4862338;29;20070;-88
2021/12/28 03:09:41;;;;;;;21.45;4.18;;;;;;;;;;4857728;29;20168;-88
2021/12/28 03:12:08;;;;;;;21.60;4.18;;;;;;;;;;4847135;29;20033;-88
2021/12/28 03:14:33;;;;;;;19.23;4.20;;;;;;;;;;4839810;29;20489;-85
2021/12/28 03:17:00;;;;;;;18.58;3.83;;;;;;;;;;4847360;29;20030;-85
2021/12/28 03:19:25;;;;;;;13.57;3.88;;;;;;;;;;4839541;29;20117;-89
2021/12/28 03:21:50;;;;;;;14.05;3.90;;;;;;;;;;4864444;29;20070;-85
2021/12/28 03:24:17;;;;;;;16.23;4.10;;;;;;;;;;4849301;29;20438;-86
2021/12/28 03:26:43;;;;;;;19.67;4.00;;;;;;;;;;4833697;29;20037;-87
2021/12/28 03:29:09;;;;;;;15.27;3.97;;;;;;;;;;4858236;29;20034;-86
2021/12/28 03:31:34;;;;;;;17.48;3.65;;;;;;;;;;4839836;29;20056;-84
2021/12/28 03:34:00;;;;;;;19.00;4.53;;;;;;;;;;4846708;29;20056;-88
2021/12/28 03:36:30;;;;;;;17.48;4.35;;;;;;;;;;4863357;29;20025;-87
2021/12/28 03:38:57;;;;;;;16.73;3.83;;;;;;;;;;4859261;29;20036;-85
2021/12/28 03:41:25;;;;;;;20.85;4.55;;;;;;;;;;4838692;29;20546;-85
2021/12/28 03:43:53;;;;;;;23.35;4.35;;;;;;;;;;4841672;29;20041;-88
2021/12/28 03:46:19;;;;;;;20.38;4.13;;;;;;;;;;4845335;29;20025;-86
2021/12/28 03:48:45;;;;;;;15.15;3.92;;;;;;;;;;4859224;29;20057;-85
2021/12/28 03:51:12;;;;;;;19.52;4.43;;;;;;;;;;4847966;29;20036;-88
2021/12/28 03:53:37;;;;;;;21.05;4.18;;;;;;;;;;4864135;29;20044;-87
2021/12/28 03:56:05;;;;;;;20.08;3.88;;;;;;;;;;4844231;29;20482;-88
2021/12/28 03:58:31;;;;;;;14.98;3.78;;;;;;;;;;4836800;29;20125;-86
2021/12/28 04:00:57;;;;;;;14.88;4.30;;;;;;;;;;4844517;29;20117;-87
2021/12/28 04:03:22;;;;;;;19.38;4.03;;;;;;;;;;4846896;29;20076;-89
2021/12/28 04:05:47;;;;;;;17.05;4.18;;;;;;;;;;4864730;29;20040;-88
2021/12/28 04:08:19;;;;;;;15.18;3.63;;;;;;;;;;4854488;29;20098;-88
2021/12/28 04:11:13;;;;;;;14.38;3.95;;;;;;;;;;4865085;29;20465;-90
2021/12/28 04:13:38;;;;;;;;;;;;;;;;;;4859164;29;20568;-84
2021/12/28 04:16:04;;;;;;;16.58;3.88;;;;;;;;;;4858441;29;19916;-86
2021/12/28 04:18:29;;;;;;;19.83;4.30;;;;;;;;;;4859309;29;20515;-89
2021/12/28 04:20:55;;;;;;;17.60;3.75;;;;;;;;;;4861130;29;20037;-87
2021/12/28 04:23:20;;;;;;;14.80;3.38;;;;;;;;;;4859095;29;20401;-88
2021/12/28 04:25:45;;;;;;;14.43;3.97;;;;;;;;;;4859253;29;20116;-84
2021/12/28 04:28:11;;;;;;;19.75;4.07;;;;;;;;;;4868157;29;20032;-88
2021/12/28 04:30:37;;;;;;;14.38;3.25;;;;;;;;;;4861067;29;20045;-88
2021/12/28 04:33:03;;;;;;;18.00;3.70;;;;;;;;;;4858132;29;20442;-88
2021/12/28 04:35:28;;;;;;;13.90;3.40;;;;;;;;;;4860672;29;20032;-88
2021/12/28 04:37:54;;;;;;;17.23;3.60;;;;;;;;;;4856605;29;20060;-84
2021/12/28 04:40:19;;;;;;;21.58;3.60;;;;;;;;;;4855131;29;20506;-88
2021/12/28 04:42:45;;;;;;;14.50;3.63;;;;;;;;;;4859686;29;20124;-87
2021/12/28 04:45:10;;;;;;;20.52;4.13;;;;;;;;;;4864634;29;20497;-86
2021/12/28 04:47:38;;;;;;;18.73;4.43;;;;;;;;;;4854444;29;20044;-88
2021/12/28 04:50:05;;;;;;;23.20;3.97;;;;;;;;;;4850474;29;20389;-89
2021/12/28 04:52:34;;;;;;;14.93;3.83;;;;;;;;;;4852255;29;20033;-84
2021/12/28 04:55:00;;;;;;;14.43;3.40;;;;;;;;;;4864603;29;20456;-89
2021/12/28 04:57:28;;;;;;;18.98;4.03;;;;;;;;;;4859014;29;20029;-89
2021/12/28 04:59:53;;;;;;;22.15;3.80;;;;;;;;;;4856055;29;20033;-84
2021/12/28 05:02:18;;;;;;;15.00;3.17;;;;;;;;;;4857116;29;20674;-87
2021/12/28 05:04:44;;;;;;;22.33;3.35;;;;;;;;;;4855845;29;20405;-87
2021/12/28 05:07:09;;;;;;;18.45;3.88;;;;;;;;;;4856407;29;20026;-88
2021/12/28 05:09:35;;;;;;;12.60;2.97;;;;;;;;;;4839942;29;20037;-87
2021/12/28 05:12:01;;;;;;;14.27;3.05;;;;;;;;;;4863138;29;20033;-87
2021/12/28 05:14:26;;;;;;;21.35;3.50;;;;;;;;;;4839487;29;20077;-89
2021/12/28 05:16:51;;;;;;;17.40;3.20;;;;;;;;;;4846648;29;20037;-89
2021/12/28 05:19:17;;;;;;;18.83;3.72;;;;;;;;;;4837929;29;20022;-86
2021/12/28 05:21:43;;;;;;;17.30;3.50;;;;;;;;;;4843432;29;20030;-88
2021/12/28 05:24:08;;;;;;;14.50;3.33;;;;;;;;;;4840312;29;20033;-89
2021/12/28 05:26:34;;;;;;;14.35;3.53;;;;;;;;;;4853461;29;20048;-89
2021/12/28 05:29:00;;;;;;;21.42;3.20;;;;;;;;;;4845864;29;20061;-86
2021/12/28 05:31:25;;;;;;;24.48;3.50;;;;;;;;;;4845716;29;20052;-89
2021/12/28 05:33:52;;;;;;;14.88;3.50;;;;;;;;;;4840748;29;20033;-87
2021/12/28 05:36:18;;;;;;;13.23;3.10;;;;;;;;;;4857312;29;20036;-88
2021/12/28 05:38:44;;;;;;;13.88;2.67;;;;;;;;;;4840177;29;20025;-85
2021/12/28 05:41:09;;;;;;;15.27;3.20;;;;;;;;;;4849490;29;20980;-89
2021/12/28 05:43:35;;;;;;;16.23;2.75;;;;;;;;;;4861530;29;20032;-88
2021/12/28 05:46:00;;;;;;;20.15;3.60;;;;;;;;;;4838504;29;20033;-88
2021/12/28 05:48:26;;;;;;;16.90;2.95;;;;;;;;;;4843511;29;20482;-88
2021/12/28 05:50:52;;;;;;;14.13;3.17;;;;;;;;;;4847701;29;20066;-85
2021/12/28 05:53:17;;;;;;;18.02;2.72;;;;;;;;;;4846126;29;20492;-89
2021/12/28 05:55:44;;;;;;;14.63;3.35;;;;;;;;;;4839763;29;20029;-86
2021/12/28 05:58:10;;;;;;;16.60;3.13;;;;;;;;;;4845032;29;20042;-88
2021/12/28 06:00:36;;;;;;;13.15;3.28;;;;;;;;;;4840428;29;20112;-84
2021/12/28 06:03:01;;;;;;;15.48;3.55;;;;;;;;;;4844322;29;20636;-85
2021/12/28 06:05:26;;;;;;;18.42;3.20;;;;;;;;;;4839457;29;20030;-88
2021/12/28 06:07:52;;;;;;;17.58;3.35;;;;;;;;;;4847576;29;20058;-88
2021/12/28 06:10:17;;;;;;;14.48;2.65;;;;;;;;;;4858828;29;20064;-84
2021/12/28 06:12:44;;;;;;;10.85;2.88;;;;;;;;;;4858683;29;20033;-84
2021/12/28 06:15:10;;;;;;;12.68;3.15;;;;;;;;;;4857800;29;20045;-83
2021/12/28 06:17:36;;;;;;;10.63;2.85;;;;;;;;;;4862865;29;20490;-89
2021/12/28 06:20:02;;;;;;;12.52;2.90;;;;;;;;;;4860333;29;20026;-89
2021/12/28 06:22:27;;;;;;;8.88;2.45;;;;;;;;;;4869264;29;20495;-84
2021/12/28 06:24:53;;;;;;;17.30;2.75;;;;;;;;;;4853424;29;20040;-89
2021/12/28 06:27:19;;;;;;;13.32;2.80;;;;;;;;;;4853381;29;20018;-89
2021/12/28 06:29:45;;;;;;;12.02;2.72;;;;;;;;;;4859994;29;20121;-89
2021/12/28 06:32:12;;;;;;;14.93;2.80;;;;;;;;;;4861760;29;20121;-84
2021/12/28 06:34:38;;;;;;;9.52;2.00;;;;;;;;;;4860913;29;20029;-88
2021/12/28 06:37:04;;;;;;;11.73;2.42;;;;;;;;;;4859967;29;20478;-85
2021/12/28 06:39:30;;;;;;;8.15;1.80;;;;;;;;;;4862570;29;20041;-89
2021/12/28 06:41:58;;;;;;;12.45;2.20;;;;;;;;;;4853765;29;20036;-84
2021/12/28 06:44:24;;;;;;;11.10;2.63;;;;;;;;;;4859921;29;20037;-89
2021/12/28 06:46:50;;;;;;;13.25;1.85;;;;;;;;;;4859828;29;20286;-88
2021/12/28 06:49:16;;;;;;;9.50;2.05;;;;;;;;;;4855704;29;20037;-87
2021/12/28 06:51:42;;;;;;;8.15;2.22;;;;;;;;;;4854290;29;20442;-86
2021/12/28 06:54:08;;;;;;;11.77;1.83;;;;;;;;;;4860056;29;20036;-87
2021/12/28 06:56:33;;;;;;;11.18;1.95;;;;;;;;;;4859479;29;20034;-87
2021/12/28 06:58:59;;;;;;;15.10;2.10;;;;;;;;;;4862210;29;20037;-88
2021/12/28 07:01:25;;;;;;;9.68;2.63;;;;;;;;;;4859119;29;20036;-85
2021/12/28 07:03:51;;;;;;;11.15;1.90;;;;;;;;;;4854794;29;20044;-85
2021/12/28 07:06:17;;;;;;;10.23;1.88;;;;;;;;;;4864057;29;20116;-85
2021/12/28 07:08:43;;;;;;;7.85;1.50;;;;;;;;;;4857795;29;20053;-88
2021/12/28 07:11:10;;;;;;;11.10;1.70;;;;;;;;;;4864023;29;20058;-85
2021/12/28 07:13:35;;;;;;;8.20;1.77;;;;;;;;;;4858857;29;20034;-85
2021/12/28 07:16:01;;;;;;;9.38;1.95;;;;;;;;;;4862078;29;20078;-86
2021/12/28 07:18:26;;;;;;;9.60;1.63;;;;;;;;;;4858048;29;20037;-87
2021/12/28 07:20:52;;;;;;;9.60;1.83;;;;;;;;;;4858298;29;20051;-88
2021/12/28 07:23:18;;;;;;;7.15;1.73;;;;;;;;;;4853911;29;20371;-86
2021/12/28 07:25:44;;;;;;;10.50;1.80;;;;;;;;;;4852921;29;20493;-88
2021/12/28 07:28:09;;;;;;;12.07;1.75;;;;;;;;;;4855717;29;20056;-88
2021/12/28 07:30:35;;;;;;;10.45;1.77;;;;;;;;;;4851542;29;20506;-87
2021/12/28 07:33:00;;;;;;;5.18;1.45;;;;;;;;;;4856467;29;20037;-88
2021/12/28 07:35:25;;;;;;;10.85;1.98;;;;;;;;;;4853663;29;20049;-87
2021/12/28 07:37:53;;;;;;;8.35;1.75;;;;;;;;;;4861879;29;20154;-89
2021/12/28 07:40:19;;;;;;;8.13;1.90;;;;;;;;;;4858804;29;20044;-87
2021/12/28 07:42:44;;;;;;;6.85;1.60;;;;;;;;;;4857406;29;20034;-89
2021/12/28 07:45:12;;;;;;;9.77;1.90;;;;;;;;;;4858332;29;20085;-84
2021/12/28 07:47:38;;;;;;;8.95;1.88;;;;;;;;;;4858377;29;20030;-89
2021/12/28 07:50:06;;;;;;;5.43;1.80;;;;;;;;;;4857132;29;20398;-89
2021/12/28 07:52:31;;;;;;;7.13;2.22;;;;;;;;;;4858068;29;20121;-85
2021/12/28 07:54:56;;;;;;;8.18;2.25;;;;;;;;;;4854451;29;20108;-87
2021/12/28 07:57:22;;;;;;;10.60;2.13;;;;;;;;;;4855129;29;20037;-85
2021/12/28 07:59:47;;;;;;;8.15;1.98;;;;;;;;;;4861852;29;20033;-89
2021/12/28 08:02:12;;;;;;;8.38;1.80;;;;;;;;;;4859123;29;20041;-87
2021/12/28 08:04:38;;;;;;;10.57;1.80;;;;;;;;;;4858104;29;20041;-88
2021/12/28 08:07:04;;;;;;;6.25;1.63;;;;;;;;;;4863859;29;20029;-86
2021/12/28 08:09:30;;;;;;;7.78;1.98;;;;;;;;;;4847417;29;20043;-88
2021/12/28 08:11:55;;;;;;;6.90;2.00;;;;;;;;;;4856453;29;20397;-85
2021/12/28 08:14:20;;;;;;;6.22;1.80;;;;;;;;;;4861759;29;20029;-88
2021/12/28 08:16:46;;;;;;;7.40;1.88;;;;;;;;;;4845904;29;20037;-84
2021/12/28 08:19:12;;;;;;;8.43;1.67;;;;;;;;;;4843078;29;20036;-89
2021/12/28 08:21:37;;;;;;;6.60;2.00;;;;;;;;;;4847152;29;20093;-88
2021/12/28 08:24:03;;;;;;;6.53;1.90;;;;;;;;;;4847698;29;20026;-87
2021/12/28 08:26:29;;;;;;;7.45;2.00;;;;;;;;;;4845767;29;20025;-89
2021/12/28 08:28:54;;;;;;;6.82;1.88;;;;;;;;;;4854150;29;20546;-89
2021/12/28 08:31:20;;;;;;;7.07;2.05;;;;;;;;;;4844111;29;20039;-85
2021/12/28 08:33:45;;;;;;;7.22;2.00;;;;;;;;;;4853935;29;20021;-87
2021/12/28 08:36:11;;;;;;;8.63;2.55;;;;;;;;;;4845154;29;20116;-89
2021/12/28 08:38:38;;;;;;;9.18;2.58;;;;;;;;;;4866251;29;20036;-88
2021/12/28 08:41:04;;;;;;;9.30;2.28;;;;;;;;;;4837668;29;20045;-89
2021/12/28 08:43:29;;;;;;;4.95;2.28;;;;;;;;;;4864320;29;20565;-84
2021/12/28 08:45:55;;;;;;;8.23;2.30;;;;;;;;;;4844363;29;20061;-89
2021/12/28 08:48:20;;;;;;;5.97;2.38;;;;;;;;;;4839373;29;20033;-85
2021/12/28 08:50:46;;;;;;;6.90;2.60;;;;;;;;;;4841451;29;20037;-88
2021/12/28 08:53:12;;;;;;;7.25;2.55;;;;;;;;;;4846381;29;20041;-86
2021/12/28 08:55:39;;;;;;;8.93;3.00;;;;;;;;;;4848439;29;20029;-89
2021/12/28 08:58:05;;;;;;;6.70;2.97;;;;;;;;;;4841323;29;20040;-85
2021/12/28 09:00:33;;;;;;;6.35;2.60;;;;;;;;;;4846568;29;20487;-88
2021/12/28 09:03:00;;;;;;;6.70;2.90;;;;;;;;;;4840475;29;20029;-89
2021/12/28 09:05:28;;;;;;;8.98;3.30;;;;;;;;;;4857648;29;20040;-85
2021/12/28 09:07:57;;;;;;;7.15;3.40;;;;;;;;;;4843333;29;20098;-87
2021/12/28 09:10:27;;;;;;;5.70;3.15;;;;;;;;;;4858152;29;20121;-85
2021/12/28 09:12:53;;;;;;;8.15;3.60;;;;;;;;;;4871525;29;20036;-87
2021/12/28 09:15:19;;;;;;;6.57;3.42;;;;;;;;;;4872527;29;20120;-88
2021/12/28 09:17:53;;;;;;;7.03;3.70;;;;;;;;;;4850533;29;20561;-87
2021/12/28 09:20:21;;;;;;;9.82;3.70;;;;;;;;;;4853980;29;20144;-88
2021/12/28 09:22:47;;;;;;;6.32;3.72;;;;;;;;;;4857904;29;20049;-86
2021/12/28 09:25:16;;;;;;;10.60;4.22;;;;;;;;;;4858270;29;20406;-88
2021/12/28 09:27:43;;;;;;;7.40;3.78;;;;;;;;;;4855767;29;20033;-88
2021/12/28 09:30:31;;;;;;;;;;;;;;;;;;;;;
2021/12/28 09:33:18;;;;;;;7.82;4.30;;;;;;;;;;4861340;29;20026;-89
2021/12/28 09:35:53;;;;;;;7.25;4.13;;;;;;;;;;4875255;29;20038;-88
2021/12/28 09:38:21;;;;;;;6.57;4.13;;;;;;;;;;4854729;29;20025;-89
2021/12/28 09:40:50;;;;;;;8.75;4.60;;;;;;;;;;4858436;29;20034;-85
2021/12/28 09:43:19;;;;;;;6.75;4.78;;;;;;;;;;4858590;29;20580;-89
2021/12/28 09:45:45;;;;;;;9.27;4.97;;;;;;;;;;4851208;29;20090;-88
2021/12/28 09:48:11;;;;;;;8.00;4.82;;;;;;;;;;4865597;29;20136;-86
2021/12/28 09:50:39;;;;;;;7.60;4.95;;;;;;;;;;4846941;29;20042;-86
2021/12/28 09:53:52;;;;;;;7.22;4.75;;;;;;;;;;4850321;29;21420;-87
2021/12/28 09:57:24;;;;;;;8.07;4.88;;;;;;;;;;4772123;30;20571;-89
2021/12/28 10:00:23;;;;;;;7.60;5.60;;;;;;;;;;4758290;30;20135;-89
2021/12/28 10:03:59;;;;;;;7.85;4.97;;;;;;;;;;4785389;29;20100;-89
2021/12/28 10:06:54;;;;;;;6.90;5.18;;;;;;;;;;4721944;30;20044;-87
2021/12/28 10:09:31;;;;;;;7.78;4.90;;;;;;;;;;4737382;30;20056;-87
2021/12/28 10:12:24;;;;;;;7.75;4.85;;;;;;;;;;4700654;30;20060;-88
2021/12/28 10:18:55;;;;;;;7.15;5.35;;;;;;;;;;4708773;30;20175;-88
2021/12/28 10:22:27;;;;;;;6.40;4.97;;;;;;;;;;4678599;30;20045;-88
2021/12/28 10:26:05;;;;;;;;;;;;;;;;;;;;;
2021/12/28 10:29:29;;;;;;;8.30;5.00;;;;;;;;;;4640766;30;20046;-88
2021/12/28 10:32:29;;;;;;;8.30;5.38;;;;;;;;;;4672400;30;20058;-88
2021/12/28 10:35:00;;;;;;;6.00;4.53;;;;;;;;;;4731662;30;20519;-88
2021/12/28 10:37:33;;;;;;;7.38;4.70;;;;;;;;;;4755305;30;20051;-88
2021/12/28 10:40:00;;;;;;;;;;;;;;;;;;4797793;29;20042;-87
2021/12/28 10:43:29;;;;;;;6.32;4.68;;;;;;;;;;4824216;29;19946;-88
2021/12/28 10:49:02;;;;;;;6.18;4.47;;;;;;;;;;4815173;29;20783;-88
2021/12/28 10:51:44;;;;;;;;;;;;;;;;;;;;;
2021/12/28 10:54:36;;;;;;;7.70;4.63;;;;;;;;;;4788685;29;20034;-88
2021/12/28 10:57:01;;;;;;;5.43;4.13;;;;;;;;;;4826951;29;20162;-86
2021/12/28 11:00:12;;;;;;;;;;;;;;;;;;;;;
2021/12/28 12:08:14;;;;;;;3.40;1.95;;;;;;;;;;4839916;29;20056;-87
2021/12/28 12:10:45;;;;;;;7.97;2.15;;;;;;;;;;4829839;29;20041;-87
2021/12/28 12:16:16;;;;;;;5.32;1.95;;;;;;;;;;4835278;29;20066;-87
2021/12/28 12:18:47;;;;;;;6.88;2.50;;;;;;;;;;4834195;29;20388;-87
2021/12/28 12:21:18;;;;;;;7.28;2.67;;;;;;;;;;4819949;29;20517;-86
2021/12/28 12:23:52;;;;;;;8.68;3.35;;;;;;;;;;4822555;29;20022;-87
2021/12/28 12:26:31;;;;;;;9.80;2.65;;;;;;;;;;4821139;29;20838;-86
2021/12/28 12:28:56;;;;;;;8.82;4.25;;;;;;;;;;4817785;29;20114;-87
2021/12/28 12:31:41;;;;;;;9.70;2.97;;;;;;;;;;4822002;29;20028;-87
2021/12/28 12:34:32;;;;;;;10.93;2.38;;;;;;;;;;4840997;29;20022;-87
2021/12/28 12:36:58;;;;;;;11.55;2.67;;;;;;;;;;4819561;29;20051;-87
2021/12/28 12:39:24;;;;;;;10.82;2.47;;;;;;;;;;4821453;29;20034;-86
2021/12/28 12:42:19;;;;;;;10.07;2.20;;;;;;;;;;4836435;29;20026;-88
2021/12/28 12:45:57;;;;;;;9.98;2.40;;;;;;;;;;4816487;29;20038;-88
2021/12/28 12:52:19;;;;;;;14.35;2.58;;;;;;;;;;4787924;29;20054;-86
2021/12/28 12:54:53;;;;;;;;;;;;;;;;;;4816825;29;20041;-88
2021/12/28 12:58:23;;;;;;;18.35;3.10;;;;;;;;;;4846336;29;19920;-86
2021/12/28 13:00:51;;;;;;;16.02;2.85;;;;;;;;;;4820143;29;20526;-88
2021/12/28 13:04:05;;;;;;;16.55;3.05;;;;;;;;;;4833109;29;20029;-87
2021/12/28 13:06:47;;;;;;;15.27;2.58;;;;;;;;;;4832300;29;20046;-88
2021/12/28 13:09:25;;;;;;;17.08;2.70;;;;;;;;;;4837787;29;20603;-89
2021/12/28 13:12:23;;;;;;;17.70;3.50;;;;;;;;;;4840858;29;20029;-88
2021/12/28 13:18:54;;;;;;;18.52;2.97;;;;;;;;;;4787885;29;20047;-88
2021/12/28 13:21:25;;;;;;;22.92;4.05;;;;;;;;;;4764661;30;21403;-86
2021/12/28 13:24:25;;;;;;;22.45;2.70;;;;;;;;;;4748895;30;20080;-86
2021/12/28 13:27:27;;;;;;;26.42;3.17;;;;;;;;;;4750150;30;20044;-87
2021/12/28 13:30:25;;;;;;;24.45;3.17;;;;;;;;;;4727791;30;20045;-89
2021/12/28 13:33:07;;;;;;;;;;;;;;;;;;;;;
2021/12/28 13:36:38;;;;;;;;;;;;;;;;;;;;;
2021/12/28 13:39:28;;;;;;;21.20;3.38;;;;;;;;;;4658766;30;20043;-87
2021/12/28 13:42:28;;;;;;;22.88;2.95;;;;;;;;;;4653768;30;20058;-86
2021/12/28 13:44:59;;;;;;;19.77;2.80;;;;;;;;;;4649998;30;20030;-88
2021/12/28 13:47:59;;;;;;;25.45;3.60;;;;;;;;;;4663385;30;20071;-87
2021/12/28 13:51:12;;;;;;;;;;;;;;;;;;;;;
2021/12/28 13:54:04;;;;;;;21.77;3.47;;;;;;;;;;4674334;30;20050;-87
2021/12/28 13:57:04;;;;;;;16.05;2.35;;;;;;;;;;4699784;30;20132;-87
2021/12/28 13:59:37;;;;;;;12.73;2.33;;;;;;;;;;4701137;30;20511;-87
2021/12/28 14:02:05;;;;;;;12.88;2.00;;;;;;;;;;4692313;30;20046;-87
2021/12/28 14:24:04;;;;;;;15.50;2.30;;;;;;;;;;4873330;29;20080;-88
2021/12/28 14:31:04;;;;;;;11.98;1.88;;;;;;;;;;4783814;29;20138;-87
2021/12/28 14:37:38;;;;;;;16.30;2.85;;;;;;;;;;4763076;30;20456;-88
2021/12/28 14:40:48;;;;;;;;;;;;;;;;;;;;;
2021/12/28 14:44:06;;;;;;;12.88;3.00;;;;;;;;;;4760270;30;20051;-87
2021/12/28 14:46:57;;;;;;;;;;;;;;;;;;;;;
2021/12/28 14:49:38;;;;;;;20.15;3.38;;;;;;;;;;4759982;30;20056;-86
2021/12/28 14:52:51;;;;;;;;;;;;;;;;;;;;;
2021/12/28 14:59:40;;;;;;;10.93;2.30;;;;;;;;;;4708337;30;20060;-87
2021/12/28 15:05:12;;;;;;;12.80;3.70;;;;;;;;;;4701813;30;20815;-86
2021/12/28 15:18:14;;;;;;;11.48;3.30;;;;;;;;;;4869112;29;20519;-88
2021/12/28 15:20:43;;;;;;;8.70;3.47;;;;;;;;;;4856776;29;20581;-89
2021/12/28 15:23:47;;;;;;;17.88;7.80;;;;;;;;;;4861929;29;20553;-89
2021/12/28 15:26:16;;;;;;;10.07;3.60;;;;;;;;;;4829790;29;20486;-88
2021/12/28 15:28:44;;;;;;;10.43;3.58;;;;;;;;;;4821348;29;20034;-87
2021/12/28 15:32:00;;;;;;;;;;;;;;;;;;;;;
2021/12/28 15:35:16;;;;;;;13.02;3.78;;;;;;;;;;4828230;29;20520;-89
2021/12/28 15:38:18;;;;;;;11.18;3.67;;;;;;;;;;4822299;29;20060;-87
2021/12/28 15:44:18;;;;;;;6.57;2.45;;;;;;;;;;4776944;29;20087;-88
2021/12/28 15:46:49;;;;;;;16.35;4.15;;;;;;;;;;4783710;29;20039;-87
2021/12/28 15:49:18;;;;;;;8.60;2.80;;;;;;;;;;4820827;29;20066;-88
2021/12/28 15:55:49;;;;;;;14.52;5.38;;;;;;;;;;4790055;29;20047;-87
2021/12/28 15:58:52;;;;;;;20.85;10.57;;;;;;;;;;4796046;29;20561;-89
2021/12/28 16:02:21;;;;;;;14.65;7.22;;;;;;;;;;4738173;30;20041;-87
2021/12/28 16:05:22;;;;;;;13.07;6.07;;;;;;;;;;4721110;30;20048;-87
2021/12/28 16:10:52;;;;;;;12.00;3.90;;;;;;;;;;4696213;30;20049;-88
2021/12/28 16:17:36;;;;;;;;;;;;;;;;;;;;;
2021/12/28 16:20:24;;;;;;;9.23;3.10;;;;;;;;;;4748156;30;20068;-87
2021/12/28 16:29:24;;;;;;;5.97;2.58;;;;;;;;;;4763367;30;20047;-87
2021/12/28 16:35:37;;;;;;;;;;;;;;;;;;;;;
2021/12/28 16:38:25;;;;;;;8.70;2.83;;;;;;;;;;4765880;30;20905;-87
2021/12/28 16:47:27;;;;;;;7.63;3.05;;;;;;;;;;4772775;30;20074;-87
2021/12/28 16:54:10;;;;;;;;;;;;;;;;;;;;;
2021/12/28 17:00:08;;;;;;;;;;;;;;;;;;;;;
2021/12/28 17:03:01;;;;;;;7.53;3.90;;;;;;;;;;4815728;29;20042;-88
2021/12/28 17:08:01;;;;;;;10.85;3.75;;;;;;;;;;4864924;23;20745;-88
2021/12/28 17:11:04;;;;;;;9.98;3.25;;;;;;;;;;4852878;29;20041;-88
2021/12/28 17:13:33;;;;;;;12.23;3.60;;;;;;;;;;4821951;29;20057;-87
2021/12/28 17:16:03;;;;;;;8.90;2.15;;;;;;;;;;4859824;29;20037;-88
2021/12/28 17:26:07;;;;;;;11.68;2.33;;;;;;;;;;4740870;30;20032;-87
2021/12/28 17:29:05;;;;;;;13.80;2.05;;;;;;;;;;4708415;30;20568;-88
2021/12/28 17:32:34;;;;;;;7.68;2.25;;;;;;;;;;4708612;30;20471;-88
2021/12/28 17:44:35;;;;;;;9.35;1.98;;;;;;;;;;4706723;30;20761;-87
2021/12/28 17:47:10;;;;;;;5.38;1.90;;;;;;;;;;4695838;30;20049;-88
2021/12/28 17:49:38;;;;;;;6.57;1.85;;;;;;;;;;4726657;30;20036;-88
2021/12/28 17:52:07;;;;;;;7.90;2.40;;;;;;;;;;4709339;30;20048;-89
2021/12/28 17:55:09;;;;;;;7.22;2.17;;;;;;;;;;4709145;30;20065;-89
2021/12/28 17:58:13;;;;;;;9.68;2.97;;;;;;;;;;4717812;30;20053;-89
2021/12/28 18:04:11;;;;;;;10.70;2.83;;;;;;;;;;4738106;30;20063;-87
2021/12/28 18:07:11;;;;;;;6.07;2.55;;;;;;;;;;4742533;30;20048;-88
2021/12/28 18:09:40;;;;;;;8.13;3.00;;;;;;;;;;4766265;30;20622;-88
2021/12/28 18:12:11;;;;;;;12.68;3.10;;;;;;;;;;4768493;29;20074;-88
2021/12/28 18:14:42;;;;;;;9.82;3.30;;;;;;;;;;4769888;29;20058;-89
2021/12/28 18:17:53;;;;;;;;;;;;;;;;;;;;;
2021/12/28 18:21:12;;;;;;;9.80;3.35;;;;;;;;;;4812682;29;20034;-88
2021/12/28 18:27:44;;;;;;;8.48;3.53;;;;;;;;;;4839202;29;20037;-88
2021/12/28 18:37:45;;;;;;;9.35;4.28;;;;;;;;;;4744613;30;20052;-89
2021/12/28 18:40:18;;;;;;;8.95;4.28;;;;;;;;;;4736224;30;20109;-88
2021/12/28 18:42:46;;;;;;;;;;;;;;;;;;4732494;30;20044;-89
2021/12/28 18:45:45;;;;;;;12.00;5.07;;;;;;;;;;4742718;30;20017;-89
2021/12/28 18:52:17;;;;;;;12.15;4.72;;;;;;;;;;4751117;30;20489;-89
2021/12/28 18:58:22;;;;;;;12.93;4.72;;;;;;;;;;4783489;29;20063;-88
2021/12/28 19:03:49;;;;;;;14.88;6.03;;;;;;;;;;4768371;30;20071;-88